M I D A S
Marine Information and Data Acquisition System
Tripno 317 of the Zeeleeuw from 2002-04-11 06:35:16 to 2002-04-11 14:34:41
Back to CruiseResearch ActivitiesStationsMapUnderway DataData graphs

EquipmentUnitsComment
TimeDGPSUTC
LatitudeDGPSDM.mWGS84
LongitudeDGPSDM.mWGS84
HeadingGyrodeg 
SOGDGPSknotsSpeed over ground
COGDGPSdegCourse over ground
DepthEcho soundermeters200 kHz
Missing or incorrect values are displayed as -999
Navigation data collected by the RV Zeeleeuw from 2002-04-11 06:35:16 to 2002-04-11 14:34:41
                                                                                    Next 1000 lines
Time Latitude Longitude Heading SOG COG Depth
2002-04-11 06:35:22 51°13.689 2°55.892 98.3 0.9 279.2 -999
2002-04-11 06:35:27 51°13.689 2°55.889 98 1.2 278.3 -999
2002-04-11 06:35:32 51°13.689 2°55.885 97.7 1.5 277.2 -999
2002-04-11 06:35:37 51°13.69 2°55.881 97.2 1.8 277 -999
2002-04-11 06:35:42 51°13.69 2°55.876 96.5 2 277.3 -999
2002-04-11 06:35:47 51°13.691 2°55.871 96 2.3 277.4 -999
2002-04-11 06:35:52 51°13.691 2°55.866 95.2 2.4 277.2 -999
2002-04-11 06:35:57 51°13.691 2°55.86 94.3 2.6 276.1 -999
2002-04-11 06:36:02 51°13.692 2°55.854 93.5 2.7 275.2 -999
2002-04-11 06:36:07 51°13.692 2°55.848 92.7 2.8 274.5 -999
2002-04-11 06:36:12 51°13.692 2°55.841 92 2.9 274.2 -999
2002-04-11 06:36:17 51°13.692 2°55.835 91.3 2.9 273.8 -999
2002-04-11 06:36:22 51°13.693 2°55.828 90.7 2.9 273.5 -999
2002-04-11 06:36:27 51°13.693 2°55.822 90.3 2.9 273.5 -999
2002-04-11 06:36:32 51°13.693 2°55.816 90 2.9 273.7 -999
2002-04-11 06:36:36 51°13.693 2°55.811 89.8 2.8 273.4 8.6
2002-04-11 06:36:40 51°13.693 2°55.806 89.5 2.8 273.4 9.1
2002-04-11 06:36:43 51°13.693 2°55.802 89.3 2.8 273.5 9.3
2002-04-11 06:36:48 51°13.694 2°55.796 88.7 2.7 273.6 9.4
2002-04-11 06:36:52 51°13.694 2°55.791 88 2.7 273.5 10.3
2002-04-11 06:36:58 51°13.694 2°55.784 87.2 2.6 273.9 11
2002-04-11 06:37:02 51°13.695 2°55.78 86 2.5 273.9 11.7
2002-04-11 06:37:08 51°13.695 2°55.774 84.8 2.5 273.7 11.8
2002-04-11 06:37:12 51°13.695 2°55.77 83.5 2.4 273 12.2
2002-04-11 06:37:18 51°13.695 2°55.765 82.2 2 274.1 12.7
2002-04-11 06:37:22 51°13.695 2°55.763 79.2 1.6 275.6 12.8
2002-04-11 06:37:28 51°13.696 2°55.762 73.2 0.7 296.3 12.7
2002-04-11 06:37:32 51°13.696 2°55.763 66 0.5 352.2 12.7
2002-04-11 06:37:37 51°13.698 2°55.764 57 0.9 30.4 12.6
2002-04-11 06:37:42 51°13.699 2°55.765 50.2 1.1 30.4 12.4
2002-04-11 06:37:48 51°13.7 2°55.766 46 1 29.2 11.8
2002-04-11 06:37:52 51°13.701 2°55.766 43.5 0.9 24.1 11.7
2002-04-11 06:37:57 51°13.702 2°55.767 40.8 0.6 13.2 11.7
2002-04-11 06:38:03 51°13.703 2°55.766 38.5 0.4 344.3 11.7
2002-04-11 06:38:08 51°13.703 2°55.766 36.8 0.3 274.6 11.9
2002-04-11 06:38:12 51°13.703 2°55.764 35.2 0.4 261 12.1
2002-04-11 06:38:18 51°13.702 2°55.763 34 0.8 236.1 12.4
2002-04-11 06:38:23 51°13.701 2°55.761 32.8 0.9 233 12.4
2002-04-11 06:38:28 51°13.7 2°55.759 31.8 1.1 229.5 12.5
2002-04-11 06:38:32 51°13.699 2°55.757 30.8 1.2 228.3 12.6
2002-04-11 06:38:38 51°13.697 2°55.755 29.8 1.2 227.1 -999
2002-04-11 06:38:43 51°13.696 2°55.753 28.8 1.2 227 -999
2002-04-11 06:38:48 51°13.695 2°55.751 28 1.1 227 -999
2002-04-11 06:38:54 51°13.695 2°55.75 26.2 0.8 236.6 -999
2002-04-11 06:38:58 51°13.695 2°55.749 21.2 0.4 277.9 11.7
2002-04-11 06:39:03 51°13.697 2°55.748 15.5 0.7 336.8 11.8
2002-04-11 06:39:09 51°13.7 2°55.747 8.2 1.7 354 -999
2002-04-11 06:39:13 51°13.703 2°55.746 357.8 2.4 348.9 11.8
2002-04-11 06:39:17 51°13.706 2°55.745 349.8 2.8 345.3 11
2002-04-11 06:39:22 51°13.71 2°55.741 343 3.1 340 10.1
2002-04-11 06:39:27 51°13.715 2°55.738 337.5 3.4 334.6 10.1
2002-04-11 06:39:32 51°13.719 2°55.734 333.7 3.6 330.9 8.9
2002-04-11 06:39:38 51°13.725 2°55.73 331.7 3.6 329.6 9.1
2002-04-11 06:39:42 51°13.728 2°55.727 330.7 3.7 328.9 8.4
2002-04-11 06:39:48 51°13.733 2°55.721 330.5 3.6 328.2 9
2002-04-11 06:39:52 51°13.736 2°55.718 331 3.6 327.8 8.7
2002-04-11 06:39:57 51°13.741 2°55.714 331.8 3.6 328.7 8.6
2002-04-11 06:40:03 51°13.746 2°55.709 332.5 3.8 330.2 8.6
2002-04-11 06:40:08 51°13.752 2°55.705 333.2 3.9 331.9 8.6
2002-04-11 06:40:13 51°13.757 2°55.701 333.2 4.1 332.4 8.5
2002-04-11 06:40:21 51°13.765 2°55.693 332.3 2.4 331.7 8.5
2002-04-11 06:40:23 51°13.768 2°55.691 332 3 331.8 8.7
2002-04-11 06:40:29 51°13.775 2°55.684 331.8 3.5 331.3 8.7
2002-04-11 06:40:33 51°13.78 2°55.68 332 4.8 330.6 8.6
2002-04-11 06:40:39 51°13.788 2°55.673 331.7 5.3 330.2 9
2002-04-11 06:40:44 51°13.794 2°55.666 330.7 5.6 329.9 9
2002-04-11 06:40:49 51°13.801 2°55.66 329.7 5.7 329 8.8
2002-04-11 06:40:54 51°13.808 2°55.653 330 5.8 328.6 9
2002-04-11 06:40:58 51°13.813 2°55.647 331 5.9 328.8 9
2002-04-11 06:41:04 51°13.822 2°55.64 332.5 6 329.7 9
2002-04-11 06:41:09 51°13.83 2°55.633 333 6.1 330.4 8.8
2002-04-11 06:41:13 51°13.836 2°55.628 333.7 6.2 331.5 8.9
2002-04-11 06:41:19 51°13.845 2°55.62 334.2 6.2 331.7 8.8
2002-04-11 06:41:23 51°13.851 2°55.615 335.2 6.3 333 8.6
2002-04-11 06:41:29 51°13.86 2°55.607 335.3 6.3 333.5 8.4
2002-04-11 06:41:34 51°13.868 2°55.601 335.7 6.4 334.2 7.9
2002-04-11 06:41:39 51°13.876 2°55.595 335.5 6.4 334.5 -999
2002-04-11 06:41:44 51°13.885 2°55.589 336 6.4 334.8 -999
2002-04-11 06:41:50 51°13.895 2°55.583 336.7 6.5 335.4 -999
2002-04-11 06:41:54 51°13.901 2°55.578 336.3 6.5 335.3 -999
2002-04-11 06:42:00 51°13.911 2°55.57 334.8 6.5 333.8 -999
2002-04-11 06:42:04 51°13.917 2°55.564 333.7 6.6 332.1 -999
2002-04-11 06:42:09 51°13.926 2°55.557 333.3 6.6 331 8.7
2002-04-11 06:42:13 51°13.932 2°55.552 334.5 6.6 330.9 8.5
2002-04-11 06:42:19 51°13.942 2°55.544 335.8 6.6 332.5 8.5
2002-04-11 06:42:24 51°13.95 2°55.537 336.8 6.6 333.4 8.7
2002-04-11 06:42:29 51°13.958 2°55.531 337.5 6.6 334.1 8.8
2002-04-11 06:42:34 51°13.967 2°55.525 337.5 6.6 335.6 8.8
2002-04-11 06:42:39 51°13.975 2°55.519 337.7 6.6 335.9 8.8
2002-04-11 06:42:44 51°13.983 2°55.513 338 6.6 336 8.9
2002-04-11 06:42:49 51°13.991 2°55.507 337.8 6.5 335.2 8.9
2002-04-11 06:42:53 51°13.998 2°55.503 337.5 6.5 335.4 9
2002-04-11 06:42:59 51°14.007 2°55.496 337.3 6.4 335.5 9
2002-04-11 06:43:03 51°14.014 2°55.491 337.8 6.3 335.7 9
2002-04-11 06:43:09 51°14.023 2°55.484 338.7 6.3 335.8 9
2002-04-11 06:43:14 51°14.031 2°55.479 338.8 6.3 336.6 9.1
2002-04-11 06:43:18 51°14.037 2°55.475 338.8 6.3 336.6 9
2002-04-11 06:43:24 51°14.046 2°55.468 338.7 6.1 336.5 9
2002-04-11 06:43:29 51°14.054 2°55.463 339 6 336.5 8.7
2002-04-11 06:43:33 51°14.06 2°55.458 339.2 6.1 336.4 8.9
2002-04-11 06:43:39 51°14.07 2°55.452 339 6.2 336.8 8.8
2002-04-11 06:43:44 51°14.079 2°55.446 338.5 6.4 336.7 8.9
2002-04-11 06:43:49 51°14.087 2°55.439 338.7 6.7 336 8.8
2002-04-11 06:43:53 51°14.094 2°55.434 339.2 6.9 335.7 8.8
2002-04-11 06:43:58 51°14.103 2°55.428 339 7 335.8 8.8
2002-04-11 06:44:03 51°14.112 2°55.421 338.5 7.2 336 8.7
2002-04-11 06:44:09 51°14.123 2°55.413 338.8 7.4 336.6 8.6
2002-04-11 06:44:13 51°14.131 2°55.408 338.8 7.6 336.9 8.6
2002-04-11 06:44:19 51°14.144 2°55.4 337.7 7.8 336.6 8.7
2002-04-11 06:44:24 51°14.154 2°55.391 336 8.2 334.7 8.5
2002-04-11 06:44:29 51°14.165 2°55.383 334.8 8.3 333.3 -999
2002-04-11 06:44:34 51°14.175 2°55.373 333.5 8.6 331.2 8.7
2002-04-11 06:44:39 51°14.185 2°55.363 332 8.7 330 8.5
2002-04-11 06:44:44 51°14.196 2°55.353 330.8 8.8 328.9 8.6
2002-04-11 06:44:49 51°14.206 2°55.342 329 8.9 327.5 8.4
2002-04-11 06:44:54 51°14.216 2°55.33 326 9 325 8.4
2002-04-11 06:44:59 51°14.226 2°55.317 322.8 9 322.7 8.6
2002-04-11 06:45:04 51°14.235 2°55.304 320.7 9.1 319.5 8.6
2002-04-11 06:45:08 51°14.242 2°55.293 319.3 9.1 317.8 8.5
2002-04-11 06:45:14 51°14.253 2°55.276 318 9.1 316.3 8.4
2002-04-11 06:45:19 51°14.262 2°55.261 315.8 9.2 314.8 8.5
2002-04-11 06:45:23 51°14.268 2°55.249 314.8 9.2 312.9 8.3
2002-04-11 06:45:29 51°14.278 2°55.231 314 9.2 311.5 8.2
2002-04-11 06:45:33 51°14.285 2°55.218 312.8 9.2 310.7 8.1
2002-04-11 06:45:39 51°14.294 2°55.199 311.2 9.2 309.6 8
2002-04-11 06:45:44 51°14.302 2°55.183 310.2 9.3 308 8.4
2002-04-11 06:45:49 51°14.31 2°55.166 309.5 9.3 307.5 8.4
2002-04-11 06:45:53 51°14.316 2°55.153 308.8 9.3 307.1 8.6
2002-04-11 06:45:59 51°14.326 2°55.133 308.5 9.3 307 8.3
2002-04-11 06:46:04 51°14.334 2°55.117 307.8 9.4 306.7 8.5
2002-04-11 06:46:09 51°14.342 2°55.099 307.3 9.5 306.4 8.4
2002-04-11 06:46:14 51°14.35 2°55.082 307 9.7 306 8.7
2002-04-11 06:46:19 51°14.358 2°55.064 308.7 9.8 306 8.8
2002-04-11 06:46:23 51°14.365 2°55.05 311.5 10 308.5 8.6
2002-04-11 06:46:29 51°14.376 2°55.03 315.3 10.2 311.4 8.6
2002-04-11 06:46:34 51°14.387 2°55.015 319.3 10.3 315 8.8
2002-04-11 06:46:38 51°14.396 2°55.003 323.2 10.3 317.7 8.6
2002-04-11 06:46:43 51°14.408 2°54.989 327.8 10.4 320.6 8.5
2002-04-11 06:46:49 51°14.422 2°54.973 331.2 10.4 324.2 8.5
2002-04-11 06:46:53 51°14.431 2°54.963 333.2 10.5 326.3 8.6
2002-04-11 06:46:59 51°14.446 2°54.948 334.2 10.6 327.3 8.3
2002-04-11 06:47:04 51°14.459 2°54.934 334.3 10.8 327.1 8.3
2002-04-11 06:47:09 51°14.472 2°54.921 333.5 11.1 326.6 8.3
2002-04-11 06:47:13 51°14.483 2°54.909 333 11.4 325.7 8.2
2002-04-11 06:47:19 51°14.499 2°54.891 333 11.6 325.6 8.1
2002-04-11 06:47:24 51°14.513 2°54.876 333.2 11.8 325.5 8.1
2002-04-11 06:47:29 51°14.527 2°54.861 333.3 11.9 326 8.1
2002-04-11 06:47:33 51°14.538 2°54.849 333.3 12 325.6 8.1
2002-04-11 06:47:39 51°14.555 2°54.831 333.8 12 325.7 7.9
2002-04-11 06:47:44 51°14.568 2°54.816 333.8 12.1 325.7 8
2002-04-11 06:47:49 51°14.583 2°54.801 334.5 12.1 326.4 7.9
2002-04-11 06:47:54 51°14.596 2°54.786 334.3 12.2 326.6 7.9
2002-04-11 06:47:58 51°14.608 2°54.775 334.7 12.2 327.1 7.7
2002-04-11 06:48:03 51°14.622 2°54.76 334.5 12.2 326.7 7.9
2002-04-11 06:48:09 51°14.639 2°54.742 334.2 12.2 326.3 7.8
2002-04-11 06:48:14 51°14.653 2°54.727 334 12.2 326.3 7.9
2002-04-11 06:48:19 51°14.668 2°54.714 335.5 12.2 327.4 7.9
2002-04-11 06:48:24 51°14.682 2°54.698 334.5 12.3 327.3 7.8
2002-04-11 06:48:29 51°14.697 2°54.684 334.8 12.3 327 8
2002-04-11 06:48:34 51°14.711 2°54.669 333.7 12.3 326.8 8
2002-04-11 06:48:38 51°14.722 2°54.657 335 12.3 326.6 8
2002-04-11 06:48:43 51°14.737 2°54.642 334.3 12.3 327.1 8
2002-04-11 06:48:49 51°14.754 2°54.623 334.5 12.4 326.8 7.8
2002-04-11 06:48:54 51°14.769 2°54.608 334.2 12.6 327.5 7.9
2002-04-11 06:48:59 51°14.784 2°54.593 334 12.6 327.6 7.9
2002-04-11 06:49:04 51°14.798 2°54.578 333.7 12.7 327.3 7.9
2002-04-11 06:49:09 51°14.813 2°54.563 334 12.7 326.4 7.9
2002-04-11 06:49:13 51°14.825 2°54.552 333.7 12.7 327 7.8
2002-04-11 06:49:19 51°14.843 2°54.533 333.8 12.8 326.9 7.6
2002-04-11 06:49:24 51°14.858 2°54.517 333.5 12.8 326.9 -999
2002-04-11 06:49:29 51°14.873 2°54.502 333.8 12.8 326.5 7.7
2002-04-11 06:49:34 51°14.888 2°54.486 334.2 12.8 327 7.6
2002-04-11 06:49:39 51°14.903 2°54.471 334.2 12.8 326.6 7.5
2002-04-11 06:49:44 51°14.917 2°54.456 334.5 12.8 328.3 7.4
2002-04-11 06:49:49 51°14.932 2°54.441 334.7 12.7 327.2 7.4
2002-04-11 06:49:54 51°14.947 2°54.426 335 12.6 327.7 7.3
2002-04-11 06:49:59 51°14.961 2°54.411 334.2 12.6 326.6 7
2002-04-11 06:50:03 51°14.973 2°54.399 334.5 12.5 327.2 6.9
2002-04-11 06:50:09 51°14.99 2°54.382 335.7 12.4 327.3 -999
2002-04-11 06:50:14 51°15.005 2°54.367 335 12.4 327.5 7
2002-04-11 06:50:19 51°15.019 2°54.352 335.2 12.3 327.1 6.9
2002-04-11 06:50:24 51°15.033 2°54.338 335.2 12.3 327.2 6.3
2002-04-11 06:50:29 51°15.047 2°54.323 335.2 12.3 326.7 7
2002-04-11 06:50:33 51°15.059 2°54.311 333.8 12.3 325.6 6.9
2002-04-11 06:50:38 51°15.073 2°54.295 334.7 12.3 325.7 6.5
2002-04-11 06:50:44 51°15.089 2°54.276 333.5 12.3 325.2 -999
2002-04-11 06:50:49 51°15.103 2°54.261 334.5 12.3 325.6 7
2002-04-11 06:50:54 51°15.117 2°54.245 332.8 12.4 324.7 7.1
2002-04-11 06:50:59 51°15.132 2°54.229 333.5 12.4 324.7 7.3
2002-04-11 06:51:03 51°15.143 2°54.215 333.3 12.5 324.8 7.2
2002-04-11 06:51:09 51°15.16 2°54.195 334 12.6 325.1 7.2
2002-04-11 06:51:13 51°15.171 2°54.182 333.2 12.6 325.2 7.4
2002-04-11 06:51:18 51°15.185 2°54.167 332.7 12.7 324.5 7.5
2002-04-11 06:51:24 51°15.202 2°54.147 332.7 12.7 323.7 7.5
2002-04-11 06:51:29 51°15.217 2°54.131 333.7 12.7 324.8 7.5
2002-04-11 06:51:33 51°15.229 2°54.119 334.2 12.7 325.9 7.6
2002-04-11 06:51:38 51°15.243 2°54.102 334 12.8 325.9 7.7
2002-04-11 06:51:43 51°15.258 2°54.086 333.3 12.8 325.5 7.6
2002-04-11 06:51:49 51°15.276 2°54.067 334 12.9 325.4 6.4
2002-04-11 06:51:53 51°15.287 2°54.053 332.7 12.9 324 7.9
2002-04-11 06:51:59 51°15.305 2°54.034 333.3 12.9 324 7.9
2002-04-11 06:52:04 51°15.319 2°54.016 332.7 12.9 324.2 7.7
2002-04-11 06:52:09 51°15.334 2°54 333.3 13 323.9 8
2002-04-11 06:52:14 51°15.348 2°53.982 332.8 13 323 8
2002-04-11 06:52:19 51°15.363 2°53.965 333.7 13 323.1 8.1
2002-04-11 06:52:24 51°15.377 2°53.947 332.8 13 323.2 8.2
2002-04-11 06:52:29 51°15.392 2°53.931 333.8 13.1 323.4 8.1
2002-04-11 06:52:34 51°15.406 2°53.913 332.7 13.2 323.2 8.1
2002-04-11 06:52:39 51°15.421 2°53.896 333.8 13.2 323.3 8.3
2002-04-11 06:52:44 51°15.435 2°53.877 333.3 13.2 323.1 8.5
2002-04-11 06:52:49 51°15.45 2°53.862 334.5 13.1 323.7 8.5
2002-04-11 06:52:53 51°15.462 2°53.848 333.8 13.2 324.2 8.6
2002-04-11 06:52:59 51°15.481 2°53.829 336.2 13.1 326.2 8.6
2002-04-11 06:53:04 51°15.496 2°53.813 335.5 13.2 326.3 8.7
2002-04-11 06:53:09 51°15.511 2°53.797 336.5 13.2 326.9 8.8
2002-04-11 06:53:13 51°15.523 2°53.784 334.7 13.3 325.9 8.9
2002-04-11 06:53:19 51°15.542 2°53.764 335 13.3 325.2 9
2002-04-11 06:53:24 51°15.557 2°53.746 333.5 13.3 324.8 9.1
2002-04-11 06:53:29 51°15.571 2°53.73 333.5 13.3 324 9.1
2002-04-11 06:53:33 51°15.583 2°53.716 332.7 13.3 323.7 9.3
2002-04-11 06:53:39 51°15.601 2°53.695 333.2 13.3 323.6 9.3
2002-04-11 06:53:43 51°15.613 2°53.682 332.8 13.3 324.7 9.3
2002-04-11 06:53:49 51°15.631 2°53.661 333.2 13.3 324 9.4
2002-04-11 06:53:53 51°15.643 2°53.647 332.7 13.3 324.6 9.5
2002-04-11 06:53:58 51°15.658 2°53.629 332 13.3 323.3 9.6
2002-04-11 06:54:04 51°15.676 2°53.609 333.3 13.3 324.3 9.7
2002-04-11 06:54:09 51°15.69 2°53.59 331.5 13.4 322.7 9.7
2002-04-11 06:54:13 51°15.703 2°53.577 333.2 13.3 324 9.8
2002-04-11 06:54:19 51°15.72 2°53.555 331.5 13.4 322.4 9.8
2002-04-11 06:54:24 51°15.735 2°53.538 333.2 13.3 323.9 9.9
2002-04-11 06:54:29 51°15.75 2°53.52 331 13.3 322.2 10
2002-04-11 06:54:33 51°15.762 2°53.507 332.7 13.3 323.7 10
2002-04-11 06:54:38 51°15.776 2°53.487 331.7 13.4 322.3 10
2002-04-11 06:54:43 51°15.792 2°53.471 333.8 13.3 324 10
2002-04-11 06:54:49 51°15.809 2°53.449 331.7 13.3 322.8 10.1
2002-04-11 06:54:54 51°15.824 2°53.433 335 13.3 324.9 10.1
2002-04-11 06:54:58 51°15.836 2°53.418 332.3 13.3 324 10.2
2002-04-11 06:55:04 51°15.854 2°53.399 334.7 13.3 324.9 10.2
2002-04-11 06:55:09 51°15.868 2°53.38 332.3 13.3 323.6 10.4
2002-04-11 06:55:13 51°15.881 2°53.368 334.5 13.2 324.6 10.3
2002-04-11 06:55:19 51°15.899 2°53.347 333.2 13.3 324.7 10.4
2002-04-11 06:55:24 51°15.914 2°53.331 335 13.3 325 10.3
2002-04-11 06:55:29 51°15.929 2°53.314 335 13.3 325 10.5
2002-04-11 06:55:33 51°15.941 2°53.301 336.5 13.2 325.7 10.4
2002-04-11 06:55:39 51°15.96 2°53.282 336 13.2 327 10.4
2002-04-11 06:55:44 51°15.974 2°53.265 335.2 12.9 324.2 10.4
2002-04-11 06:55:49 51°15.989 2°53.249 336.3 12.8 325.3 10.6
2002-04-11 06:55:53 51°16.001 2°53.235 334.8 13 324.4 10.6
2002-04-11 06:55:59 51°16.019 2°53.217 337 13 326.1 10.6
2002-04-11 06:56:04 51°16.033 2°53.199 335.5 13 325 10.8
2002-04-11 06:56:09 51°16.048 2°53.185 338.2 12.9 326.3 10.8
2002-04-11 06:56:14 51°16.063 2°53.167 335.7 13 325.3 10.7
2002-04-11 06:56:19 51°16.078 2°53.153 339 12.9 326.8 10.9
2002-04-11 06:56:24 51°16.093 2°53.137 337.5 12.9 327.6 10.9
2002-04-11 06:56:29 51°16.109 2°53.123 338.8 12.8 328.3 10.9
2002-04-11 06:56:33 51°16.121 2°53.111 337.2 12.9 328.8 10.8
2002-04-11 06:56:38 51°16.136 2°53.096 338.2 12.9 328.5 11
2002-04-11 06:56:44 51°16.155 2°53.079 337.5 12.9 329.8 11.1
2002-04-11 06:56:49 51°16.17 2°53.065 336.7 12.9 328.5 10.9
2002-04-11 06:56:54 51°16.185 2°53.05 337 12.9 329.6 11.1
2002-04-11 06:56:59 51°16.2 2°53.035 335.7 13 327.9 11.2
2002-04-11 06:57:04 51°16.216 2°53.021 337 12.8 329.3 11
2002-04-11 06:57:09 51°16.231 2°53.004 335.2 12.9 327.5 11
2002-04-11 06:57:13 51°16.244 2°52.995 338 12.9 330.1 11.2
2002-04-11 06:57:19 51°16.262 2°52.975 333.5 12.9 328.1 11.1
2002-04-11 06:57:24 51°16.277 2°52.962 335.7 12.9 328.9 11.1
2002-04-11 06:57:29 51°16.292 2°52.944 333.2 12.9 327.6 11.2
2002-04-11 06:57:33 51°16.304 2°52.934 335.8 12.9 328.6 11.1
2002-04-11 06:57:39 51°16.322 2°52.915 334 12.9 328.3 11.2
2002-04-11 06:57:44 51°16.338 2°52.901 335.7 13 328.8 11.1
2002-04-11 06:57:49 51°16.353 2°52.886 335 13 329.4 11
2002-04-11 06:57:54 51°16.369 2°52.871 335.5 13 328.4 11
2002-04-11 06:57:59 51°16.384 2°52.856 335 13 329.4 11
2002-04-11 06:58:04 51°16.399 2°52.839 332.7 13.1 327 10.9
2002-04-11 06:58:09 51°16.415 2°52.825 334.3 13 328.3 11
2002-04-11 06:58:14 51°16.43 2°52.809 334.3 13 327.7 10.9
2002-04-11 06:58:19 51°16.445 2°52.795 336 12.9 329.2 10.8
2002-04-11 06:58:24 51°16.46 2°52.78 335.2 12.9 328.7 10.7
2002-04-11 06:58:29 51°16.476 2°52.766 337.3 12.9 329.6 10.7
2002-04-11 06:58:34 51°16.491 2°52.751 335.7 12.9 329.6 10.6
2002-04-11 06:58:39 51°16.507 2°52.738 337 12.8 329.6 10.6
2002-04-11 06:58:43 51°16.519 2°52.727 337.8 12.8 330.6 10.4
2002-04-11 06:58:48 51°16.535 2°52.714 339.8 12.8 331.8 10.3
2002-04-11 06:58:54 51°16.554 2°52.698 340 12.8 333.4 10.3
2002-04-11 06:58:59 51°16.57 2°52.687 341.3 12.8 334.7 10.1
2002-04-11 06:59:04 51°16.586 2°52.674 340.7 12.8 334.3 10.2
2002-04-11 06:59:09 51°16.601 2°52.662 341.2 12.8 334 10
2002-04-11 06:59:13 51°16.614 2°52.653 340.8 12.8 334.9 9.9
2002-04-11 06:59:19 51°16.633 2°52.638 340.8 12.7 334.1 9.9
2002-04-11 06:59:24 51°16.649 2°52.627 342.7 12.6 335.4 9.6
2002-04-11 06:59:29 51°16.665 2°52.614 341.5 12.6 334.3 9.7
2002-04-11 06:59:33 51°16.677 2°52.606 342.8 12.5 335.9 9.3
2002-04-11 06:59:38 51°16.693 2°52.593 341.5 12.6 334.5 9
2002-04-11 06:59:43 51°16.709 2°52.584 343.7 12.5 336.3 8.9
2002-04-11 06:59:49 51°16.728 2°52.569 341.7 12.5 335.2 8.5
2002-04-11 06:59:54 51°16.744 2°52.56 344.5 12.4 337.2 8.4
2002-04-11 06:59:59 51°16.759 2°52.547 341.8 12.3 335.8 8.6
2002-04-11 07:00:04 51°16.775 2°52.538 344.8 12.2 337.6 8.8
2002-04-11 07:00:09 51°16.79 2°52.527 344 12.2 337 8.8
2002-04-11 07:00:14 51°16.806 2°52.519 347.7 12.2 339.4 8.7
2002-04-11 07:00:18 51°16.818 2°52.51 345 12.3 339.1 8.5
2002-04-11 07:00:24 51°16.838 2°52.499 347.3 12.4 340 8.5
2002-04-11 07:00:29 51°16.854 2°52.488 345.8 12.4 338.9 8.7
2002-04-11 07:00:33 51°16.867 2°52.483 348.8 12.3 340.8 8.9
2002-04-11 07:00:39 51°16.886 2°52.471 346.3 12.4 340.2 8.9
2002-04-11 07:00:44 51°16.902 2°52.463 348.2 12.4 340.9 8.6
2002-04-11 07:00:49 51°16.918 2°52.452 345.7 12.4 339.2 8.4
2002-04-11 07:00:53 51°16.932 2°52.446 347.8 12.4 340.4 8.3
2002-04-11 07:00:59 51°16.951 2°52.434 346.8 12.4 340.2 8.2
2002-04-11 07:01:04 51°16.967 2°52.427 347.2 12.3 340.8 8.1
2002-04-11 07:01:09 51°16.983 2°52.417 347.2 12.2 340.6 8.4
2002-04-11 07:01:13 51°16.996 2°52.41 347.8 12.2 340.8 8.3
2002-04-11 07:01:19 51°17.015 2°52.399 346.3 12.2 340.7 8.3
2002-04-11 07:01:24 51°17.031 2°52.39 347 12.3 339.5 8.5
2002-04-11 07:01:29 51°17.047 2°52.381 347.3 12.3 340.5 8.4
2002-04-11 07:01:34 51°17.063 2°52.371 346.3 12.4 339.4 8.6
2002-04-11 07:01:39 51°17.08 2°52.362 346.8 12.4 340.4 8.6
2002-04-11 07:01:43 51°17.092 2°52.353 345.2 12.4 338.4 8.7
2002-04-11 07:01:49 51°17.112 2°52.342 346.5 12.3 339.6 8.9
2002-04-11 07:01:54 51°17.128 2°52.331 344.2 12.4 337.9 8.8
2002-04-11 07:01:59 51°17.144 2°52.323 347.2 12.4 338.7 8.9
2002-04-11 07:02:04 51°17.16 2°52.313 346.7 12.4 339.8 8.8
2002-04-11 07:02:09 51°17.177 2°52.305 348.7 12.4 341.7 8.9
2002-04-11 07:02:13 51°17.19 2°52.297 348.2 12.4 340.9 9
2002-04-11 07:02:18 51°17.206 2°52.289 350.8 12.4 342.1 9.1
2002-04-11 07:02:24 51°17.226 2°52.28 350 12.4 343.2 9
2002-04-11 07:02:29 51°17.243 2°52.274 353 12.4 344.7 9.1
2002-04-11 07:02:33 51°17.256 2°52.27 354.7 12.4 347.7 9
2002-04-11 07:02:39 51°17.277 2°52.266 358 12.3 349.9 9.2
2002-04-11 07:02:43 51°17.29 2°52.263 359.8 12.2 353.3 9.2
2002-04-11 07:02:49 51°17.31 2°52.261 2.7 12.2 354.6 9.1
2002-04-11 07:02:54 51°17.326 2°52.26 4.2 12.2 357.7 9.1
2002-04-11 07:02:59 51°17.343 2°52.259 3.3 12.2 357.5 9.3
2002-04-11 07:03:04 51°17.36 2°52.26 5.8 12.1 359.6 9.1
2002-04-11 07:03:09 51°17.377 2°52.258 4.7 12.1 358.9 9.3
2002-04-11 07:03:13 51°17.39 2°52.259 6.5 12 0.4 9.2
2002-04-11 07:03:19 51°17.409 2°52.257 4.2 12 358.9 9.2
2002-04-11 07:03:24 51°17.426 2°52.259 7 12 0.5 9.2
2002-04-11 07:03:29 51°17.443 2°52.256 3.3 12 358.7 9.2
2002-04-11 07:03:34 51°17.46 2°52.257 5.7 12 359.3 9.1
2002-04-11 07:03:39 51°17.476 2°52.255 2.7 12 358.1 9.3
2002-04-11 07:03:43 51°17.489 2°52.255 5 12 358.5 9.3
2002-04-11 07:03:49 51°17.51 2°52.253 2.7 12 358.3 9.1
2002-04-11 07:03:53 51°17.523 2°52.253 3.8 12.1 357.3 9
2002-04-11 07:03:59 51°17.543 2°52.251 3 12 357.3 9.2
2002-04-11 07:04:04 51°17.559 2°52.25 3.2 12.1 356.6 9
2002-04-11 07:04:09 51°17.576 2°52.248 3.3 12 357.7 9.3
2002-04-11 07:04:13 51°17.589 2°52.247 3.3 12 356.9 9.3
2002-04-11 07:04:18 51°17.606 2°52.247 3.7 12 357.8 9.2
2002-04-11 07:04:23 51°17.622 2°52.244 3.2 12 356.4 9
2002-04-11 07:04:29 51°17.642 2°52.244 4.2 12 358 9.3
2002-04-11 07:04:34 51°17.659 2°52.242 3.2 12 356.7 9.3
2002-04-11 07:04:39 51°17.676 2°52.242 5.2 12 358.7 9.3
2002-04-11 07:04:43 51°17.689 2°52.239 2.3 12 356.5 9.3
2002-04-11 07:04:49 51°17.709 2°52.24 5.2 12 358.6 9.1
2002-04-11 07:04:53 51°17.722 2°52.237 3 12 357 9
2002-04-11 07:04:59 51°17.742 2°52.238 5.2 12 358.5 9.2
2002-04-11 07:05:03 51°17.756 2°52.235 2.8 12 357 9.1
2002-04-11 07:05:09 51°17.776 2°52.236 5.7 12 359 9.2
2002-04-11 07:05:14 51°17.792 2°52.233 1.8 12 356.5 9.1
2002-04-11 07:05:19 51°17.809 2°52.233 3.5 12 357.3 9.2
2002-04-11 07:05:24 51°17.826 2°52.23 2.2 12 355.5 9.2
2002-04-11 07:05:29 51°17.842 2°52.23 5 12 357.6 9.1
2002-04-11 07:05:33 51°17.856 2°52.227 1.8 11.9 355.9 9.3
2002-04-11 07:05:39 51°17.875 2°52.227 4.3 12 357.3 9.3
2002-04-11 07:05:44 51°17.892 2°52.224 2.7 12 356.4 9.2
2002-04-11 07:05:49 51°17.909 2°52.225 4.8 12 358.1 9.2
2002-04-11 07:05:53 51°17.922 2°52.222 2.2 12 356.7 9.2
2002-04-11 07:05:59 51°17.942 2°52.222 5 12 358 9.3
2002-04-11 07:06:04 51°17.959 2°52.22 2.8 12 357 9.2
2002-04-11 07:06:09 51°17.975 2°52.221 6.2 12 359.1 9.4
2002-04-11 07:06:13 51°17.989 2°52.219 4.2 12.1 358.5 9.3
2002-04-11 07:06:19 51°18.009 2°52.22 6.5 12.1 359.8 9.4
2002-04-11 07:06:24 51°18.025 2°52.219 4.8 12.1 359.1 9.4
2002-04-11 07:06:29 51°18.042 2°52.221 7 12.1 0.2 9.4
2002-04-11 07:06:34 51°18.059 2°52.222 9.5 12 3 9.5
2002-04-11 07:06:38 51°18.072 2°52.227 14.8 11.9 6.8 9.5
2002-04-11 07:06:43 51°18.088 2°52.233 18.5 11.9 12.5 9.5
2002-04-11 07:06:49 51°18.106 2°52.244 23.5 11.9 16.8 9.5
2002-04-11 07:06:53 51°18.118 2°52.253 27.7 11.7 22.9 9.6
2002-04-11 07:06:58 51°18.132 2°52.265 32.7 11.7 27.1 9.5
2002-04-11 07:07:04 51°18.148 2°52.283 36.8 11.6 32.8 9.6
2002-04-11 07:07:09 51°18.16 2°52.299 40.8 11.7 36.4 9.6
2002-04-11 07:07:14 51°18.171 2°52.317 45 11.6 42.1 9.7
2002-04-11 07:07:18 51°18.18 2°52.334 49.7 11.6 46.5 9.5
2002-04-11 07:07:24 51°18.191 2°52.359 53.3 11.7 52.6 9.6
2002-04-11 07:07:29 51°18.199 2°52.381 57.8 11.7 57.8 9.6
2002-04-11 07:07:33 51°18.204 2°52.4 61.2 11.7 61.1 9.6
2002-04-11 07:07:39 51°18.213 2°52.428 61.5 11.8 62.7 9.7
2002-04-11 07:07:43 51°18.219 2°52.447 62.2 11.8 63.5 9.7
2002-04-11 07:07:49 51°18.228 2°52.474 60.2 11.7 62.5 9.8
2002-04-11 07:07:53 51°18.235 2°52.491 58 11.7 59.6 9.7
2002-04-11 07:07:59 51°18.245 2°52.518 58 11.7 58.4 9.8
2002-04-11 07:08:04 51°18.254 2°52.54 56.5 11.8 57.6 9.8
2002-04-11 07:08:09 51°18.263 2°52.562 56.5 11.8 57.2 9.8
2002-04-11 07:08:14 51°18.272 2°52.584 56.2 11.8 56.9 9.9
2002-04-11 07:08:19 51°18.281 2°52.606 56.7 11.8 56.5 9.9
2002-04-11 07:08:24 51°18.29 2°52.627 55.7 11.8 55.9 9.9
2002-04-11 07:08:29 51°18.299 2°52.65 56.8 11.8 56.6 9.8
2002-04-11 07:08:34 51°18.308 2°52.671 55.3 11.8 56.4 10
2002-04-11 07:08:39 51°18.317 2°52.693 57.3 11.7 57.1 9.8
2002-04-11 07:08:44 51°18.326 2°52.714 56.2 11.7 56.4 9.8
2002-04-11 07:08:49 51°18.335 2°52.736 56.5 11.7 55.5 9.7
2002-04-11 07:08:54 51°18.344 2°52.757 55.8 11.7 55.9 9.8
2002-04-11 07:08:59 51°18.353 2°52.779 55.7 11.7 55.1 10.1
2002-04-11 07:09:03 51°18.36 2°52.796 56.8 11.7 56.4 9.9
2002-04-11 07:09:09 51°18.371 2°52.822 56.5 11.7 56.1 10
2002-04-11 07:09:13 51°18.378 2°52.84 57.2 11.7 57.5 10
2002-04-11 07:09:19 51°18.388 2°52.866 57.8 11.7 56.9 9.9
2002-04-11 07:09:24 51°18.397 2°52.888 57.3 11.7 57.9 10
2002-04-11 07:09:29 51°18.406 2°52.91 55.8 11.7 56.5 9.9
2002-04-11 07:09:34 51°18.415 2°52.932 57.3 11.8 57.3 9.9
2002-04-11 07:09:39 51°18.424 2°52.953 56 11.7 56.6 10
2002-04-11 07:09:43 51°18.431 2°52.971 57.5 11.8 57.8 9.9
2002-04-11 07:09:49 51°18.441 2°52.997 57.2 11.8 57.2 10
2002-04-11 07:09:54 51°18.45 2°53.02 58.5 11.8 57.9 10
2002-04-11 07:09:59 51°18.459 2°53.041 56 11.7 57.6 10.2
2002-04-11 07:10:03 51°18.466 2°53.058 57.5 11.7 57.7 10.1
2002-04-11 07:10:09 51°18.476 2°53.085 57.7 11.7 57.9 10
2002-04-11 07:10:13 51°18.483 2°53.103 56.7 11.7 57.8 10.1
2002-04-11 07:10:19 51°18.493 2°53.129 57.8 11.8 58.1 10.1
2002-04-11 07:10:24 51°18.502 2°53.151 57.8 11.8 57.7 10.2
2002-04-11 07:10:29 51°18.51 2°53.174 57.7 11.8 57.9 10.1
2002-04-11 07:10:34 51°18.519 2°53.196 57.5 11.8 57.7 10.2
2002-04-11 07:10:38 51°18.526 2°53.213 57.5 11.8 58.2 10.2
2002-04-11 07:10:43 51°18.535 2°53.236 57.3 11.8 58 10
2002-04-11 07:10:49 51°18.545 2°53.262 57.2 11.8 58.2 10.2
2002-04-11 07:10:54 51°18.554 2°53.284 56.7 11.8 57.5 10.2
2002-04-11 07:10:59 51°18.563 2°53.306 56.8 11.9 57.1 10.1
2002-04-11 07:11:04 51°18.572 2°53.328 56.8 11.9 56.7 10.1
2002-04-11 07:11:09 51°18.581 2°53.35 56.2 11.9 57.4 10.2
2002-04-11 07:11:13 51°18.588 2°53.367 56.3 11.8 56.8 10.2
2002-04-11 07:11:19 51°18.598 2°53.394 57.2 11.8 57.9 10.2
2002-04-11 07:11:24 51°18.608 2°53.415 56.3 11.8 56.7 10.2
2002-04-11 07:11:29 51°18.616 2°53.438 58.2 11.8 58.4 10.1
2002-04-11 07:11:34 51°18.625 2°53.459 55.7 11.8 56.6 10.1
2002-04-11 07:11:39 51°18.633 2°53.482 57.5 11.8 58.1 10.2
2002-04-11 07:11:44 51°18.644 2°53.503 55.3 11.8 55.8 10.3
2002-04-11 07:11:49 51°18.652 2°53.526 57 11.8 57.7 10.2
2002-04-11 07:11:54 51°18.662 2°53.547 55.3 11.8 55.6 10.2
2002-04-11 07:11:59 51°18.67 2°53.57 58.3 11.8 57.4 10.3
2002-04-11 07:12:04 51°18.68 2°53.591 56 11.8 56.5 10.2
2002-04-11 07:12:09 51°18.687 2°53.614 58.8 11.8 58.6 10.2
2002-04-11 07:12:13 51°18.694 2°53.632 57.5 11.8 59.1 10.3
2002-04-11 07:12:19 51°18.703 2°53.66 60.7 11.8 59.9 10.2
2002-04-11 07:12:24 51°18.711 2°53.683 61.8 11.8 62.1 10.1
2002-04-11 07:12:29 51°18.717 2°53.707 64 11.8 64.2 10.2
2002-04-11 07:12:34 51°18.723 2°53.731 63.8 11.8 66.4 10.3
2002-04-11 07:12:39 51°18.729 2°53.756 67.2 11.8 68 10.2
2002-04-11 07:12:44 51°18.735 2°53.78 68.3 11.8 70 10.2
2002-04-11 07:12:49 51°18.739 2°53.806 71 11.9 71.7 10.3
2002-04-11 07:12:54 51°18.743 2°53.832 72 11.9 73.9 10.3
2002-04-11 07:12:59 51°18.747 2°53.857 73.3 12 74.8 10.2
2002-04-11 07:13:04 51°18.751 2°53.883 73.2 12 75.7 10.2
2002-04-11 07:13:09 51°18.755 2°53.909 74 12 76.6 10.1
2002-04-11 07:13:13 51°18.759 2°53.93 72.3 12 75.9 10.1
2002-04-11 07:13:19 51°18.764 2°53.96 71.8 12 75.1 10.1
2002-04-11 07:13:24 51°18.768 2°53.986 72.7 12 75.3 10.2
2002-04-11 07:13:29 51°18.772 2°54.011 72.2 12 74.9 10.3
2002-04-11 07:13:33 51°18.776 2°54.032 72.5 12 75.2 10.3
2002-04-11 07:13:39 51°18.782 2°54.062 72 11.9 74.2 10.2
2002-04-11 07:13:44 51°18.785 2°54.089 73.2 12 75.1 10.3
2002-04-11 07:13:49 51°18.791 2°54.113 70.8 11.9 73.5 10.2
2002-04-11 07:13:53 51°18.794 2°54.134 71.5 12 73.9 10.2
2002-04-11 07:13:58 51°18.799 2°54.159 69.5 12 72.3 10.1
2002-04-11 07:14:04 51°18.804 2°54.19 71.3 12 73.7 10.2
2002-04-11 07:14:09 51°18.811 2°54.214 67.8 11.9 70.2 10.2
2002-04-11 07:14:13 51°18.814 2°54.235 70.2 12 72.5 10.2
2002-04-11 07:14:19 51°18.822 2°54.264 67 11.9 70 10.1
2002-04-11 07:14:24 51°18.825 2°54.29 69.8 12 72.1 10.2
2002-04-11 07:14:29 51°18.832 2°54.314 67.7 11.9 69.9 10.3
2002-04-11 07:14:33 51°18.835 2°54.335 70.2 12 71.8 10.2
2002-04-11 07:14:39 51°18.843 2°54.364 68.2 11.9 70.2 10.3
2002-04-11 07:14:44 51°18.847 2°54.389 69.8 11.9 72.3 10.4
2002-04-11 07:14:49 51°18.852 2°54.414 69.3 11.9 71.7 10.2
2002-04-11 07:14:53 51°18.856 2°54.435 70.8 12 72.2 10.1
2002-04-11 07:14:58 51°18.861 2°54.46 70.5 12 72.9 10
2002-04-11 07:15:04 51°18.867 2°54.49 70.3 12 72.3 10.3
2002-04-11 07:15:09 51°18.872 2°54.516 70.5 12 72.5 10.2
2002-04-11 07:15:13 51°18.876 2°54.536 70.2 12 72.1 10.2
2002-04-11 07:15:19 51°18.882 2°54.567 70.5 12 73.4 10.2
2002-04-11 07:15:23 51°18.887 2°54.586 68.5 11.9 71.3 10.2
2002-04-11 07:15:29 51°18.893 2°54.617 70.5 12 71.9 10.2
2002-04-11 07:15:34 51°18.898 2°54.642 69.2 12 71 10.2
2002-04-11 07:15:39 51°18.903 2°54.668 70.2 12.1 72.7 10.2
2002-04-11 07:15:44 51°18.909 2°54.692 68.7 12 71.1 10.2
2002-04-11 07:15:49 51°18.913 2°54.718 69.8 12 71.9 10.2
2002-04-11 07:15:54 51°18.92 2°54.742 68.2 11.9 70.3 10.1
2002-04-11 07:15:58 51°18.923 2°54.763 69.8 12 71.6 10.1
2002-04-11 07:16:04 51°18.93 2°54.793 68.7 12 70.9 10.1
2002-04-11 07:16:09 51°18.935 2°54.819 69.3 12 71.3 10.1
2002-04-11 07:16:14 51°18.94 2°54.844 69.8 12 72 10.2
2002-04-11 07:16:19 51°18.945 2°54.869 69.8 12 71.7 10.2
2002-04-11 07:16:24 51°18.951 2°54.894 69.5 12 71.5 10.2
2002-04-11 07:16:29 51°18.955 2°54.92 70.5 12 72.4 10.2
2002-04-11 07:16:33 51°18.96 2°54.94 70.2 12 72.4 10.1
2002-04-11 07:16:38 51°18.964 2°54.966 69.7 12 72.5 10.1
2002-04-11 07:16:44 51°18.97 2°54.996 71.5 12.1 72.6 10.1
2002-04-11 07:16:49 51°18.976 2°55.021 69.5 12.1 72.8 10.1
2002-04-11 07:16:54 51°18.981 2°55.047 70.2 12 72 10.1
2002-04-11 07:16:59 51°18.986 2°55.072 69.2 12 72.6 10.1
2002-04-11 07:17:03 51°18.99 2°55.092 69.8 12 72 10.1
2002-04-11 07:17:09 51°18.996 2°55.122 69.8 12 72.6 10.1
2002-04-11 07:17:14 51°19.001 2°55.148 69.8 12 71.8 10.1
2002-04-11 07:17:19 51°19.007 2°55.173 69.8 12 71.6 10.1
2002-04-11 07:17:24 51°19.011 2°55.199 70 12 72.1 10.1
2002-04-11 07:17:29 51°19.017 2°55.224 70.2 12 71.3 10.1
2002-04-11 07:17:34 51°19.022 2°55.249 69.7 12 72.1 10.2
2002-04-11 07:17:39 51°19.026 2°55.274 70.3 11.9 71.7 10.1
2002-04-11 07:17:44 51°19.031 2°55.299 70.2 11.9 72.5 10.1
2002-04-11 07:17:49 51°19.037 2°55.324 70.7 11.9 72.7 10.1
2002-04-11 07:17:53 51°19.041 2°55.344 69.7 11.9 71.8 10
2002-04-11 07:17:59 51°19.047 2°55.374 69.7 11.9 71.8 10
2002-04-11 07:18:04 51°19.053 2°55.399 69.5 12 71.1 9.9
2002-04-11 07:18:09 51°19.058 2°55.425 70.5 12 71.5 10
2002-04-11 07:18:13 51°19.062 2°55.445 69.5 12 70.8 9.9
2002-04-11 07:18:18 51°19.068 2°55.47 69.5 12 71.4 10
2002-04-11 07:18:23 51°19.072 2°55.496 70 12 71.9 9.9
2002-04-11 07:18:29 51°19.079 2°55.526 70.3 12 71.4 9.9
2002-04-11 07:18:34 51°19.084 2°55.551 70 12 72.2 10
2002-04-11 07:18:39 51°19.09 2°55.576 70.3 12 71.3 9.9
2002-04-11 07:18:44 51°19.094 2°55.602 70.3 12 72.3 9.8
2002-04-11 07:18:49 51°19.1 2°55.626 69.2 11.9 72.2 10
2002-04-11 07:18:53 51°19.104 2°55.647 70.3 11.9 72.7 10
2002-04-11 07:18:58 51°19.109 2°55.672 69.7 11.9 71.6 10
2002-04-11 07:19:04 51°19.115 2°55.702 70.3 12 72 10
2002-04-11 07:19:09 51°19.121 2°55.727 70.7 12 71.5 9.9
2002-04-11 07:19:14 51°19.126 2°55.753 71.2 12 72.1 9.8
2002-04-11 07:19:19 51°19.132 2°55.777 69 12 71.1 9.8
2002-04-11 07:19:24 51°19.137 2°55.803 70 12 71.4 9.9
2002-04-11 07:19:29 51°19.143 2°55.827 69.3 12 70.6 10
2002-04-11 07:19:33 51°19.146 2°55.848 70 12 71.6 9.9
2002-04-11 07:19:39 51°19.153 2°55.879 70.3 12 71.4 9.9
2002-04-11 07:19:44 51°19.158 2°55.904 70 12 72.6 9.8
2002-04-11 07:19:49 51°19.163 2°55.929 69.5 12 71.4 9.9
2002-04-11 07:19:54 51°19.168 2°55.955 69.5 12 72.1 9.8
2002-04-11 07:19:59 51°19.174 2°55.98 70 12 70.8 9.8
2002-04-11 07:20:03 51°19.177 2°56 69.8 12 72.2 9.8
2002-04-11 07:20:09 51°19.184 2°56.03 69.7 11.9 70.8 9.8
2002-04-11 07:20:13 51°19.188 2°56.05 70 11.9 72.2 9.8
2002-04-11 07:20:19 51°19.195 2°56.08 70 11.9 71.1 9.7
2002-04-11 07:20:23 51°19.199 2°56.1 70.3 11.9 72.3 9.6
2002-04-11 07:20:29 51°19.206 2°56.129 68.7 11.9 71 9.7
2002-04-11 07:20:33 51°19.21 2°56.15 69.8 11.9 71.7 9.7
2002-04-11 07:20:39 51°19.217 2°56.18 69.5 11.9 70.9 9.8
2002-04-11 07:20:44 51°19.222 2°56.205 70.7 11.9 71.6 9.8
2002-04-11 07:20:49 51°19.227 2°56.23 69.3 11.9 70.8 9.7
2002-04-11 07:20:53 51°19.232 2°56.25 69.7 11.9 71 9.9
2002-04-11 07:20:58 51°19.237 2°56.275 70.2 11.9 71 9.7
2002-04-11 07:21:04 51°19.243 2°56.305 70.2 11.9 71.4 9.8
2002-04-11 07:21:09 51°19.248 2°56.33 70.3 11.9 71.8 9.7
2002-04-11 07:21:13 51°19.252 2°56.35 69.7 11.9 72 9.7
2002-04-11 07:21:19 51°19.259 2°56.38 70.7 11.9 71.5 9.7
2002-04-11 07:21:23 51°19.263 2°56.401 70 12 72.1 9.7
2002-04-11 07:21:29 51°19.27 2°56.43 69.3 12 70.5 9.6
2002-04-11 07:21:34 51°19.274 2°56.456 70.3 11.9 72.1 9.5
2002-04-11 07:21:39 51°19.281 2°56.48 68.8 11.9 70.8 9.6
2002-04-11 07:21:43 51°19.284 2°56.501 70.2 12 71.8 9.7
2002-04-11 07:21:49 51°19.292 2°56.53 69 12 71.2 9.6
2002-04-11 07:21:53 51°19.295 2°56.551 71.3 11.9 72.3 9.6
2002-04-11 07:21:59 51°19.302 2°56.58 68.7 11.9 70.8 9.5
2002-04-11 07:22:04 51°19.307 2°56.605 70 11.9 70.9 9.5
2002-04-11 07:22:09 51°19.313 2°56.63 69 11.9 70.7 9.6
2002-04-11 07:22:14 51°19.318 2°56.656 70.5 12 70.9 9.4
2002-04-11 07:22:18 51°19.322 2°56.676 69.2 11.9 71.8 9.5
2002-04-11 07:22:23 51°19.329 2°56.7 69 12 70.1 9.5
2002-04-11 07:22:29 51°19.335 2°56.731 69.8 12.1 71.2 9.5
2002-04-11 07:22:33 51°19.34 2°56.75 69.8 12 70.2 9.5
2002-04-11 07:22:39 51°19.346 2°56.781 70.7 12 72.2 9.5
2002-04-11 07:22:44 51°19.352 2°56.806 69.3 12 70.1 9.5
2002-04-11 07:22:49 51°19.356 2°56.831 70.8 12 72.3 9.5
2002-04-11 07:22:54 51°19.362 2°56.856 69.7 12 71.4 9.5
2002-04-11 07:22:59 51°19.366 2°56.882 70.8 12 72.6 9.5
2002-04-11 07:23:04 51°19.372 2°56.907 70 12 71.3 9.5
2002-04-11 07:23:09 51°19.377 2°56.932 70.5 12 72.3 9.5
2002-04-11 07:23:13 51°19.382 2°56.952 70 12 70.9 9.5
2002-04-11 07:23:19 51°19.388 2°56.983 70.8 12 72 9.3
2002-04-11 07:23:24 51°19.394 2°57.007 68.8 12 70.4 9.3
2002-04-11 07:23:29 51°19.399 2°57.033 70.2 12 70.3 9.4
2002-04-11 07:23:33 51°19.404 2°57.053 68.7 12 69.4 9.3
2002-04-11 07:23:39 51°19.411 2°57.083 69.3 12 69.8 9.4
2002-04-11 07:23:44 51°19.416 2°57.108 69.3 12 70.1 9.3
2002-04-11 07:23:49 51°19.422 2°57.133 69.7 12 70.3 9.4
2002-04-11 07:23:54 51°19.428 2°57.158 70 12 71 9.4
2002-04-11 07:23:59 51°19.433 2°57.183 70.5 12 71.3 9.3
2002-04-11 07:24:04 51°19.438 2°57.209 70.5 12 71.3 9.2
2002-04-11 07:24:09 51°19.443 2°57.234 70.8 12 72.5 9.2
2002-04-11 07:24:14 51°19.449 2°57.258 69.2 12 70.8 9.2
2002-04-11 07:24:19 51°19.453 2°57.284 70.5 11.9 71.8 9.3
2002-04-11 07:24:24 51°19.46 2°57.309 69 11.9 70.4 9.2
2002-04-11 07:24:29 51°19.464 2°57.335 70.3 12 71.3 9.2
2002-04-11 07:24:33 51°19.47 2°57.354 69.5 12 70 9.2
2002-04-11 07:24:39 51°19.475 2°57.385 70 12 71.9 9.3
2002-04-11 07:24:44 51°19.482 2°57.409 69.2 12 70 9.3
2002-04-11 07:24:49 51°19.486 2°57.435 71 12 72.3 9.2
2002-04-11 07:24:54 51°19.493 2°57.459 68.3 12 69.6 9.2
2002-04-11 07:24:59 51°19.497 2°57.485 69.7 12 71 9.2
2002-04-11 07:25:04 51°19.504 2°57.509 69 11.9 69.6 9.2
2002-04-11 07:25:09 51°19.508 2°57.534 69.8 11.9 71.4 9.2
2002-04-11 07:25:14 51°19.515 2°57.559 69 12 70.1 9.2
2002-04-11 07:25:19 51°19.519 2°57.585 70 12 70.9 9.2
2002-04-11 07:25:24 51°19.525 2°57.609 69.7 12 71 9.3
2002-04-11 07:25:29 51°19.53 2°57.635 71 12 71.5 9.2
2002-04-11 07:25:33 51°19.534 2°57.655 70.5 12 72 9.1
2002-04-11 07:25:39 51°19.542 2°57.685 69.8 12 70.5 9.2
2002-04-11 07:25:44 51°19.547 2°57.71 70.3 12 71.1 9
2002-04-11 07:25:49 51°19.553 2°57.735 68.8 12 70.4 9.1
2002-04-11 07:25:54 51°19.558 2°57.761 70.5 12 71.4 9.1
2002-04-11 07:25:59 51°19.564 2°57.785 69.2 12 70.8 9
2002-04-11 07:26:04 51°19.569 2°57.811 70.3 12.1 72.1 9.1
2002-04-11 07:26:09 51°19.575 2°57.836 69 12 70.2 9.1
2002-04-11 07:26:14 51°19.58 2°57.862 70.2 12 71.7 8.9
2002-04-11 07:26:19 51°19.586 2°57.887 68.8 12 70.6 8.9
2002-04-11 07:26:23 51°19.59 2°57.906 69.8 12 71.1 9
2002-04-11 07:26:29 51°19.597 2°57.936 69.3 12 70.8 9
2002-04-11 07:26:33 51°19.602 2°57.957 70.5 12.1 71 9
2002-04-11 07:26:39 51°19.608 2°57.987 69.7 12 70.8 9.1
2002-04-11 07:26:44 51°19.613 2°58.013 70.8 12 71.7 9
2002-04-11 07:26:49 51°19.619 2°58.037 68.3 11.9 70.7 8.8
2002-04-11 07:26:54 51°19.624 2°58.062 69.8 11.9 71.1 9
2002-04-11 07:26:59 51°19.631 2°58.087 68.3 12 69.5 9
2002-04-11 07:27:04 51°19.636 2°58.113 70 12 70 8.9
2002-04-11 07:27:09 51°19.642 2°58.137 68.8 12 69.4 9
2002-04-11 07:27:14 51°19.647 2°58.163 70.5 12 70.9 8.9
2002-04-11 07:27:19 51°19.654 2°58.187 68.2 12 69.5 8.8
2002-04-11 07:27:23 51°19.658 2°58.207 69.7 12 70.2 8.8
2002-04-11 07:27:29 51°19.665 2°58.237 68.5 12.1 68.7 8.9
2002-04-11 07:27:34 51°19.67 2°58.263 70.5 12.2 70.4 9
2002-04-11 07:27:38 51°19.676 2°58.282 69.3 12.1 69.9 9
2002-04-11 07:27:43 51°19.68 2°58.308 71.2 12 70.5 9
2002-04-11 07:27:49 51°19.687 2°58.338 69.8 12 71.3 8.9
2002-04-11 07:27:54 51°19.692 2°58.364 71 12.1 71.9 9.1
2002-04-11 07:27:58 51°19.696 2°58.384 69.8 12.1 71.7 8.9
2002-04-11 07:28:03 51°19.701 2°58.409 71.2 12 72.2 9
2002-04-11 07:28:09 51°19.709 2°58.439 69.3 12 70.3 9.1
2002-04-11 07:28:14 51°19.713 2°58.465 71.2 12 72.1 9
2002-04-11 07:28:19 51°19.72 2°58.49 69.3 12 70.4 9
2002-04-11 07:28:24 51°19.725 2°58.516 71 12.1 71.9 9.1
2002-04-11 07:28:29 51°19.731 2°58.541 70.5 12.1 70.5 9
2002-04-11 07:28:34 51°19.735 2°58.567 71.3 12.1 72.4 8.9
2002-04-11 07:28:39 51°19.742 2°58.591 69.7 12.1 70.4 8.8
2002-04-11 07:28:44 51°19.746 2°58.617 71.3 12 71.5 8.9
2002-04-11 07:28:49 51°19.752 2°58.641 70.2 11.9 70.7 8.9
2002-04-11 07:28:53 51°19.756 2°58.662 70.2 11.9 71.6 8.8
2002-04-11 07:28:59 51°19.763 2°58.692 69 12 70.4 8.9
2002-04-11 07:29:04 51°19.769 2°58.718 70.8 12.1 71 8.8
2002-04-11 07:29:09 51°19.775 2°58.742 68.7 12 69.8 8.8
2002-04-11 07:29:13 51°19.779 2°58.762 70.2 12 70.1 8.8
2002-04-11 07:29:19 51°19.786 2°58.792 69.7 12 70.2 8.8
2002-04-11 07:29:24 51°19.791 2°58.817 69.7 12 70.8 8.9
2002-04-11 07:29:29 51°19.797 2°58.842 70 11.9 70.4 8.7
2002-04-11 07:29:34 51°19.802 2°58.867 69.7 11.9 71 8.8
2002-04-11 07:29:39 51°19.808 2°58.891 69.7 11.9 69.9 8.7
2002-04-11 07:29:44 51°19.813 2°58.917 70.5 11.9 70.5 8.7
2002-04-11 07:29:49 51°19.82 2°58.941 69 11.9 69.3 8.8
2002-04-11 07:29:54 51°19.825 2°58.966 70.2 12 70 8.6
2002-04-11 07:29:59 51°19.831 2°58.991 68.7 11.9 69.6 8.7
2002-04-11 07:30:04 51°19.837 2°59.016 69.7 11.9 69.6 8.7
2002-04-11 07:30:09 51°19.842 2°59.039 68.7 11.8 69.9 8.8
2002-04-11 07:30:13 51°19.847 2°59.06 70 11.8 70.3 8.7
2002-04-11 07:30:19 51°19.854 2°59.089 69.2 11.9 70 8.7
2002-04-11 07:30:23 51°19.858 2°59.109 69.8 11.9 70.4 8.7
2002-04-11 07:30:29 51°19.865 2°59.139 70 11.9 70.5 8.7
2002-04-11 07:30:34 51°19.87 2°59.165 70.5 12 70.5 8.6
2002-04-11 07:30:39 51°19.876 2°59.189 70 11.9 70.7 8.6
2002-04-11 07:30:44 51°19.882 2°59.214 70.5 11.9 70.7 8.5
2002-04-11 07:30:49 51°19.887 2°59.239 69.7 11.9 70.3 8.6
2002-04-11 07:30:54 51°19.893 2°59.264 70.5 11.9 71.1 8.6
2002-04-11 07:30:59 51°19.898 2°59.289 70 11.9 70.4 8.6
2002-04-11 07:31:03 51°19.902 2°59.308 70.5 11.9 70.7 8.5
2002-04-11 07:31:09 51°19.908 2°59.339 71 11.9 71.8 8.5
2002-04-11 07:31:14 51°19.914 2°59.364 70.5 11.9 70.7 8.5
2002-04-11 07:31:19 51°19.92 2°59.388 69.8 11.9 70.9 8.5
2002-04-11 07:31:24 51°19.925 2°59.413 69.5 11.9 70 8.6
2002-04-11 07:31:29 51°19.931 2°59.438 69.7 11.9 69.9 8.5
2002-04-11 07:31:34 51°19.937 2°59.463 69.3 11.9 69.8 8.4
2002-04-11 07:31:39 51°19.942 2°59.488 69.7 11.9 70 8.5
2002-04-11 07:31:43 51°19.948 2°59.507 69.5 11.9 69.4 8.5
2002-04-11 07:31:49 51°19.954 2°59.537 70.5 11.9 70.4 8.5
2002-04-11 07:31:53 51°19.959 2°59.557 69.5 11.9 69.8 8.5
2002-04-11 07:31:59 51°19.965 2°59.587 70.8 11.9 70.7 8.4
2002-04-11 07:32:04 51°19.971 2°59.611 69 11.9 69.3 8.4
2002-04-11 07:32:09 51°19.976 2°59.637 69.7 11.9 70.2 8.5
2002-04-11 07:32:13 51°19.982 2°59.656 69 11.9 69.1 8.5
2002-04-11 07:32:19 51°19.987 2°59.687 71.2 11.9 70.9 8.4
2002-04-11 07:32:24 51°19.994 2°59.711 68.7 11.9 69.9 8.3
2002-04-11 07:32:29 51°19.998 2°59.736 70.8 11.9 71.4 8.4
2002-04-11 07:32:34 51°20.005 2°59.761 69.5 11.9 69.9 8.3
2002-04-11 07:32:39 51°20.01 2°59.786 69.8 11.9 70.6 8.4
2002-04-11 07:32:44 51°20.017 2°59.811 68.5 12 69.1 8.3
2002-04-11 07:32:49 51°20.022 2°59.836 69.5 12 69.4 8.5
2002-04-11 07:32:54 51°20.029 2°59.86 68.5 11.9 68.7 8.4
2002-04-11 07:32:59 51°20.034 2°59.885 70.2 11.9 69.6 8.5
2002-04-11 07:33:04 51°20.04 2°59.909 69.2 11.9 68.9 8.5
2002-04-11 07:33:09 51°20.046 2°59.935 70 12 69.4 8.5
2002-04-11 07:33:14 51°20.052 2°59.959 69.3 12 69.6 8.5
2002-04-11 07:33:19 51°20.057 2°59.985 70.7 12 70.1 8.4
2002-04-11 07:33:23 51°20.061 3°0.004 69.7 11.9 70.2 8.5
2002-04-11 07:33:29 51°20.068 3°0.034 70 11.9 70.8 8.4
2002-04-11 07:33:33 51°20.073 3°0.054 71.3 11.9 71 8.3
2002-04-11 07:33:39 51°20.079 3°0.084 69.8 11.9 71 8.2
2002-04-11 07:33:44 51°20.085 3°0.109 70 11.9 70.1 8.3
2002-04-11 07:33:49 51°20.091 3°0.134 69.7 11.9 69.9 8.3
2002-04-11 07:33:54 51°20.096 3°0.158 69.3 11.9 70 8.5
2002-04-11 07:33:59 51°20.102 3°0.183 70 11.9 69.9 8.4
2002-04-11 07:34:04 51°20.107 3°0.208 70.2 11.9 70.9 8.3
2002-04-11 07:34:09 51°20.113 3°0.233 69.3 11.9 69.9 8.3
2002-04-11 07:34:14 51°20.118 3°0.258 70.5 11.9 70.9 8.4
2002-04-11 07:34:19 51°20.125 3°0.283 70 11.9 69.7 8.3
2002-04-11 07:34:24 51°20.131 3°0.308 69.3 12 69.3 8.3
2002-04-11 07:34:29 51°20.135 3°0.333 70.3 11.9 70.3 8.3
2002-04-11 07:34:33 51°20.14 3°0.352 69.7 11.9 70.6 8.5
2002-04-11 07:34:39 51°20.147 3°0.383 70.3 12 70.9 8.4
2002-04-11 07:34:43 51°20.152 3°0.402 69.7 12 69.5 8.4
2002-04-11 07:34:49 51°20.158 3°0.432 70.3 11.9 70.5 8.2
2002-04-11 07:34:54 51°20.165 3°0.457 69.3 11.9 69.4 8.3
2002-04-11 07:34:59 51°20.17 3°0.482 69.5 11.9 69.6 8.3
2002-04-11 07:35:03 51°20.175 3°0.501 69.8 11.9 69.4 8.2
2002-04-11 07:35:09 51°20.181 3°0.531 70.2 11.8 70.7 8.3
2002-04-11 07:35:13 51°20.186 3°0.551 70.2 11.8 70.6 8.2
2002-04-11 07:35:19 51°20.193 3°0.58 69.3 11.8 70.1 8.3
2002-04-11 07:35:24 51°20.198 3°0.605 69.8 11.9 70.8 8.3
2002-04-11 07:35:29 51°20.204 3°0.63 69.5 11.8 69.8 8.2
2002-04-11 07:35:33 51°20.208 3°0.65 69.7 11.8 71 8.3
2002-04-11 07:35:39 51°20.215 3°0.679 68.5 11.8 69.5 8.2
2002-04-11 07:35:42 51°20.218 3°0.694 69.5 11.8 70.1 8.3
2002-04-11 07:35:49 51°20.226 3°0.728 70 11.8 69.9 8.3
2002-04-11 07:35:54 51°20.232 3°0.753 70.3 11.8 70.8 8.4
2002-04-11 07:35:59 51°20.237 3°0.778 70.8 11.8 71.1 8.2
2002-04-11 07:36:04 51°20.242 3°0.803 71.3 11.9 71.5 8.2
2002-04-11 07:36:09 51°20.248 3°0.828 70.8 11.9 71.3 8.2
2002-04-11 07:36:14 51°20.252 3°0.853 70.7 11.9 71.9 8.2
2002-04-11 07:36:18 51°20.258 3°0.872 69.3 11.9 70.3 8.2
2002-04-11 07:36:24 51°20.264 3°0.902 70.2 11.9 70.7 8.2
2002-04-11 07:36:29 51°20.271 3°0.926 68.8 11.8 69.1 8.3
2002-04-11 07:36:34 51°20.276 3°0.951 68.8 11.8 69.3 8.2
2002-04-11 07:36:39 51°20.283 3°0.976 68.3 11.9 68 8.3
2002-04-11 07:36:44 51°20.289 3°1 67.8 11.9 68.1 8.2
2002-04-11 07:36:49 51°20.295 3°1.024 67.7 11.9 67.6 8.2
2002-04-11 07:36:53 51°20.301 3°1.044 67.3 11.9 67.2 8.2
2002-04-11 07:36:58 51°20.307 3°1.069 67.5 12 67.4 8.3
2002-04-11 07:37:04 51°20.315 3°1.097 66.5 12 66.2 8.2
2002-04-11 07:37:09 51°20.321 3°1.122 67.3 11.8 67.5 8.2
2002-04-11 07:37:13 51°20.326 3°1.141 66.8 11.9 67.1 8.2
2002-04-11 07:37:19 51°20.334 3°1.17 67.5 11.9 67 8.3
2002-04-11 07:37:24 51°20.342 3°1.195 67.3 12 66.7 8.4
2002-04-11 07:37:29 51°20.347 3°1.22 68 12 66.7 -999
2002-04-11 07:37:34 51°20.354 3°1.244 68 11.9 67.7 8.4
2002-04-11 07:37:39 51°20.36 3°1.269 67.5 11.9 67.4 8.3
2002-04-11 07:37:43 51°20.365 3°1.288 67.2 11.9 68.1 8.4
2002-04-11 07:37:49 51°20.372 3°1.318 68 12 68 8.6
2002-04-11 07:37:54 51°20.379 3°1.342 67.3 12 67.4 8.6
2002-04-11 07:37:59 51°20.385 3°1.367 68.2 12 67.6 8.5
2002-04-11 07:38:04 51°20.392 3°1.391 66.8 12 67.3 8.3
2002-04-11 07:38:09 51°20.398 3°1.416 67.7 12 67.3 8.2
2002-04-11 07:38:14 51°20.405 3°1.44 67.7 11.9 67.3 8.2
2002-04-11 07:38:19 51°20.411 3°1.465 68.2 11.8 67.8 8.1
2002-04-11 07:38:24 51°20.417 3°1.489 67.8 11.8 67.9 8.1
2002-04-11 07:38:29 51°20.423 3°1.514 68 11.9 68.3 8
2002-04-11 07:38:34 51°20.429 3°1.538 67.8 11.9 68.1 8.2
2002-04-11 07:38:39 51°20.435 3°1.562 67.8 11.9 68 8.3
2002-04-11 07:38:43 51°20.441 3°1.582 67.5 11.9 67.7 8.3
2002-04-11 07:38:49 51°20.448 3°1.611 68.3 11.9 68.3 8.3
2002-04-11 07:38:53 51°20.453 3°1.63 68 11.8 67.7 8.3
2002-04-11 07:38:59 51°20.46 3°1.659 67.3 11.8 67.7 8.2
2002-04-11 07:39:04 51°20.467 3°1.683 66.5 11.8 66.8 8.3
2002-04-11 07:39:09 51°20.473 3°1.708 66.5 11.9 67.6 8.3
2002-04-11 07:39:14 51°20.48 3°1.732 65.5 11.9 65.6 8.4
2002-04-11 07:39:19 51°20.486 3°1.756 66.8 11.8 67.1 8.4
2002-04-11 07:39:24 51°20.493 3°1.78 64.7 11.8 65.3 8.3
2002-04-11 07:39:29 51°20.499 3°1.804 66 11.8 66.3 8.5
2002-04-11 07:39:34 51°20.507 3°1.827 64.7 11.7 64.8 8.4
2002-04-11 07:39:39 51°20.513 3°1.851 65.7 11.8 65.9 8.6
2002-04-11 07:39:44 51°20.521 3°1.875 66 11.9 64.8 8.5
2002-04-11 07:39:49 51°20.527 3°1.899 66.8 11.9 66.7 8.6
2002-04-11 07:39:54 51°20.533 3°1.923 67 11.8 66.5 8.4
2002-04-11 07:39:59 51°20.539 3°1.948 68 11.8 67.9 8.3
2002-04-11 07:40:03 51°20.545 3°1.967 66.7 11.8 66.4 8.4
2002-04-11 07:40:09 51°20.552 3°1.995 67 11.8 67 8.6
2002-04-11 07:40:14 51°20.559 3°2.02 67.7 11.8 67.3 8.4
2002-04-11 07:40:18 51°20.564 3°2.04 67.2 11.8 67.5 8.5
2002-04-11 07:40:23 51°20.572 3°2.064 66.5 11.9 66.4 8.5
2002-04-11 07:40:28 51°20.578 3°2.089 67.5 11.9 67.4 8.3
2002-04-11 07:40:34 51°20.586 3°2.118 67.3 11.9 66.2 8.4
2002-04-11 07:40:39 51°20.592 3°2.142 67.5 11.9 67.4 8.4
2002-04-11 07:40:44 51°20.599 3°2.166 67 11.9 66.2 8.3
2002-04-11 07:40:49 51°20.606 3°2.19 67 11.9 66.5 8.4
2002-04-11 07:40:53 51°20.611 3°2.21 66.2 11.9 66.6 8.3
2002-04-11 07:40:58 51°20.617 3°2.234 66.5 11.9 67.3 8.3
2002-04-11 07:41:03 51°20.624 3°2.258 66.5 11.9 66.6 8.2
2002-04-11 07:41:09 51°20.632 3°2.288 67 12 66 8.2
2002-04-11 07:41:14 51°20.638 3°2.312 67.2 12 66.8 8.6
2002-04-11 07:41:19 51°20.645 3°2.336 68 11.9 66.5 8.4
2002-04-11 07:41:24 51°20.651 3°2.361 67.8 12 67.5 8.1
2002-04-11 07:41:29 51°20.658 3°2.385 66.2 11.9 66.5 8.3
2002-04-11 07:41:34 51°20.664 3°2.41 67.7 11.9 68.1 8.3
2002-04-11 07:41:39 51°20.671 3°2.434 66.8 11.9 66.7 8.3
2002-04-11 07:41:43 51°20.676 3°2.454 66.8 11.9 67.6 8.3
2002-04-11 07:41:49 51°20.684 3°2.482 67 11.8 66.7 8.3
2002-04-11 07:41:54 51°20.69 3°2.506 67.8 11.8 67.1 8.4
2002-04-11 07:41:59 51°20.697 3°2.531 67 11.9 67.2 8.3
2002-04-11 07:42:04 51°20.703 3°2.555 67.7 11.9 66.9 8.3
2002-04-11 07:42:09 51°20.71 3°2.579 66.7 11.9 66.6 8.4
2002-04-11 07:42:14 51°20.716 3°2.604 67 11.9 66.8 8.5
2002-04-11 07:42:19 51°20.723 3°2.627 66 11.8 66 8.4
2002-04-11 07:42:24 51°20.73 3°2.651 66.2 11.8 66.4 8.3
2002-04-11 07:42:29 51°20.736 3°2.676 67 11.8 66.5 8.4
2002-04-11 07:42:33 51°20.742 3°2.695 66.5 11.8 65.9 8.5
2002-04-11 07:42:39 51°20.75 3°2.724 66.8 11.9 66.5 8.5
2002-04-11 07:42:44 51°20.757 3°2.748 66.5 12 66 8.5
2002-04-11 07:42:49 51°20.763 3°2.773 67.5 12.1 66.5 8.6
2002-04-11 07:42:54 51°20.77 3°2.798 67.2 12 66.4 8.6
2002-04-11 07:42:58 51°20.775 3°2.817 67 12 66.5 8.6
2002-04-11 07:43:04 51°20.783 3°2.846 67.5 12 66.8 8.5
2002-04-11 07:43:09 51°20.79 3°2.87 66.8 11.9 66.4 8.5
2002-04-11 07:43:13 51°20.795 3°2.889 66.8 11.9 66.5 8.4
2002-04-11 07:43:19 51°20.803 3°2.918 66.5 11.9 66.4 8.5
2002-04-11 07:43:24 51°20.809 3°2.943 67 11.9 66.8 8.4
2002-04-11 07:43:29 51°20.816 3°2.967 67.2 11.8 66.6 8.3
2002-04-11 07:43:34 51°20.822 3°2.991 66.8 11.9 66.9 8.3
2002-04-11 07:43:39 51°20.829 3°3.015 66.5 11.8 66.6 8.5
2002-04-11 07:43:43 51°20.834 3°3.035 67 11.8 67 8.6
2002-04-11 07:43:49 51°20.842 3°3.064 67 11.9 66.5 8.5
2002-04-11 07:43:54 51°20.849 3°3.088 67.7 11.9 66.9 8.5
2002-04-11 07:43:59 51°20.855 3°3.112 67.3 11.9 67.1 8.4
2002-04-11 07:44:04 51°20.862 3°3.136 67.2 11.9 67 8.5
2002-04-11 07:44:08 51°20.867 3°3.156 67.2 11.9 66.9 8.5
2002-04-11 07:44:13 51°20.873 3°3.18 68.3 11.9 66.9 8.3
2002-04-11 07:44:19 51°20.881 3°3.209 66.8 11.9 66.7 8.3
2002-04-11 07:44:24 51°20.887 3°3.233 67.3 11.8 66.7 8.5
2002-04-11 07:44:29 51°20.894 3°3.256 66.7 11.8 66.4 8.4
2002-04-11 07:44:33 51°20.9 3°3.276 67 11.8 66.1 8.4
2002-04-11 07:44:39 51°20.908 3°3.305 66.7 11.8 66.7 8.3
2002-04-11 07:44:43 51°20.913 3°3.324 66.8 11.8 66.5 8.4
2002-04-11 07:44:49 51°20.921 3°3.353 65.8 11.8 65.9 8.4
2002-04-11 07:44:54 51°20.928 3°3.377 66.5 11.8 66.2 8.4
2002-04-11 07:44:59 51°20.934 3°3.4 66.3 11.7 66.1 8.4
2002-04-11 07:45:04 51°20.941 3°3.425 66.3 11.8 66.1 8.5
2002-04-11 07:45:09 51°20.948 3°3.449 67.7 11.9 66.3 8.4
2002-04-11 07:45:14 51°20.954 3°3.473 67 11.9 66.6 8.5
2002-04-11 07:45:19 51°20.96 3°3.497 67 11.8 66.6 8.5
2002-04-11 07:45:24 51°20.967 3°3.522 67.7 11.8 66.8 8.5
2002-04-11 07:45:29 51°20.973 3°3.546 67.2 11.8 67.4 8.5
2002-04-11 07:45:34 51°20.981 3°3.57 67.5 11.8 66.7 8.5
2002-04-11 07:45:39 51°20.986 3°3.595 67.5 11.9 67.7 8.6
2002-04-11 07:45:44 51°20.994 3°3.618 66.5 11.9 66 8.6
2002-04-11 07:45:49 51°21 3°3.643 67.2 11.9 66.7 8.7
2002-04-11 07:45:54 51°21.007 3°3.667 65.8 11.9 65.1 8.6
2002-04-11 07:45:59 51°21.014 3°3.691 66.5 12 66.1 8.7
2002-04-11 07:46:04 51°21.021 3°3.715 67 11.9 65.6 8.7
2002-04-11 07:46:09 51°21.027 3°3.74 67.8 11.8 66.5 8.6
2002-04-11 07:46:14 51°21.034 3°3.764 66.3 11.9 65.7 8.7
2002-04-11 07:46:19 51°21.041 3°3.788 66.8 11.9 65.9 8.6
2002-04-11 07:46:24 51°21.048 3°3.812 67 11.9 65.8 8.5
2002-04-11 07:46:29 51°21.054 3°3.837 67.3 11.9 66.6 8.7
2002-04-11 07:46:33 51°21.06 3°3.856 67.2 11.9 66 8.7
2002-04-11 07:46:39 51°21.068 3°3.886 67.8 11.9 67.1 8.7
2002-04-11 07:46:44 51°21.075 3°3.909 67.3 11.9 66.4 8.6
2002-04-11 07:46:49 51°21.081 3°3.934 66.8 11.9 66.7 8.7
2002-04-11 07:46:54 51°21.088 3°3.958 67.2 12 66.3 8.6
2002-04-11 07:46:59 51°21.095 3°3.983 67 12 66.2 8.7
2002-04-11 07:47:04 51°21.101 3°4.007 67.5 12 66.4 8.8
2002-04-11 07:47:09 51°21.108 3°4.03 67.3 12 66.2 8.7
2002-04-11 07:47:14 51°21.115 3°4.055 67 12 66 8.6
2002-04-11 07:47:19 51°21.122 3°4.079 66.3 12 66 8.6
2002-04-11 07:47:24 51°21.129 3°4.103 66.8 12 65.7 8.6
2002-04-11 07:47:29 51°21.135 3°4.127 66.5 12 66.7 8.7
2002-04-11 07:47:34 51°21.143 3°4.151 65.8 12 64.8 8.8
2002-04-11 07:47:39 51°21.15 3°4.176 66.3 12 66.1 8.8
2002-04-11 07:47:44 51°21.157 3°4.199 66 12 64.8 8.9
2002-04-11 07:47:49 51°21.163 3°4.223 66.7 11.9 66.2 8.9
2002-04-11 07:47:53 51°21.169 3°4.242 66.5 12 65.6 8.9
2002-04-11 07:47:59 51°21.177 3°4.272 66.3 12 65.6 8.9
2002-04-11 07:48:04 51°21.184 3°4.296 67.7 12 66.3 9.1
2002-04-11 07:48:09 51°21.191 3°4.32 66 12 66.1 9.1
2002-04-11 07:48:14 51°21.197 3°4.345 66.5 12 66.4 9.1
2002-04-11 07:48:19 51°21.204 3°4.37 66.8 12 66.7 9.1
2002-04-11 07:48:24 51°21.21 3°4.394 67 11.9 66.9 9.1
2002-04-11 07:48:29 51°21.217 3°4.419 66.8 11.9 66.9 9.2
2002-04-11 07:48:34 51°21.224 3°4.443 66.7 12.1 66.2 9.2
2002-04-11 07:48:39 51°21.231 3°4.467 67 12.1 66.1 9.3
2002-04-11 07:48:44 51°21.237 3°4.492 67.3 12 67.1 9.4
2002-04-11 07:48:49 51°21.244 3°4.516 67.2 12 66.4 9.3
2002-04-11 07:48:54 51°21.251 3°4.541 66.7 12.1 66.5 9.1
2002-04-11 07:48:58 51°21.256 3°4.56 67.5 12 66.5 9.3
2002-04-11 07:49:03 51°21.262 3°4.585 67.8 11.9 67.1 9.3
2002-04-11 07:49:09 51°21.27 3°4.614 66.7 12 66.8 9.4
2002-04-11 07:49:14 51°21.277 3°4.638 67 12.1 66.2 9.2
2002-04-11 07:49:19 51°21.284 3°4.662 66.3 12 66.6 9.4
2002-04-11 07:49:24 51°21.29 3°4.687 67.2 11.9 66.6 9.4
2002-04-11 07:49:29 51°21.297 3°4.711 67.5 12 66.8 9.3
2002-04-11 07:49:34 51°21.304 3°4.736 66.7 12.1 66.1 9.4
2002-04-11 07:49:39 51°21.31 3°4.76 68 12 66.9 9.3
2002-04-11 07:49:44 51°21.317 3°4.784 66.7 11.9 66.6 9.4
2002-04-11 07:49:49 51°21.324 3°4.809 66.7 12 66.5 9.4
2002-04-11 07:49:53 51°21.33 3°4.828 67 12 65.7 9.7
2002-04-11 07:49:59 51°21.338 3°4.857 66.3 12 66.1 9.4
2002-04-11 07:50:04 51°21.345 3°4.881 65.8 12 65.1 9.3
2002-04-11 07:50:09 51°21.352 3°4.905 65.8 12 65.3 9.4
2002-04-11 07:50:13 51°21.358 3°4.925 66.3 12.1 65.7 9.6
2002-04-11 07:50:18 51°21.364 3°4.949 67.7 12 66.3 9.4
2002-04-11 07:50:23 51°21.37 3°4.974 67.8 12 67.1 9.4
2002-04-11 07:50:29 51°21.379 3°5.004 67 12.1 66.4 9.4
2002-04-11 07:50:34 51°21.385 3°5.028 67.7 12.1 66.8 9.3
2002-04-11 07:50:39 51°21.392 3°5.052 67.3 12 67 9.3
2002-04-11 07:50:43 51°21.397 3°5.072 67.3 12 66.9 9.3
2002-04-11 07:50:49 51°21.405 3°5.101 66.2 12 66.6 9.3
2002-04-11 07:50:53 51°21.41 3°5.121 67 12 66.4 9.3
2002-04-11 07:50:59 51°21.418 3°5.15 66.8 12 66.7 9.4
2002-04-11 07:51:04 51°21.425 3°5.175 67.3 12 66.4 9.5
2002-04-11 07:51:09 51°21.432 3°5.199 67 12 66.8 9.3
2002-04-11 07:51:14 51°21.439 3°5.224 66 12.1 65.4 9.4
2002-04-11 07:51:19 51°21.446 3°5.248 66.5 12.1 65.9 9.4
2002-04-11 07:51:23 51°21.451 3°5.268 66.5 12 65.4 9.3
2002-04-11 07:51:29 51°21.46 3°5.297 66 12.1 64.9 9.3
2002-04-11 07:51:33 51°21.465 3°5.316 66.7 12.1 65.4 9.4
2002-04-11 07:51:39 51°21.473 3°5.345 67.2 12.1 65.5 9.5
2002-04-11 07:51:43 51°21.478 3°5.365 67.7 12 67.3 9.5
2002-04-11 07:51:49 51°21.487 3°5.394 66 12 65.6 9.3
2002-04-11 07:51:54 51°21.493 3°5.419 67.7 12 67 9.5
2002-04-11 07:51:59 51°21.501 3°5.443 65.8 12 65.1 9.5
2002-04-11 07:52:04 51°21.507 3°5.468 67.7 12 67.3 9.5
2002-04-11 07:52:09 51°21.514 3°5.491 66.5 12 66.5 9.6
2002-04-11 07:52:14 51°21.52 3°5.517 68 12 67.3 9.5
2002-04-11 07:52:19 51°21.527 3°5.541 67 12 66.1 9.5
2002-04-11 07:52:23 51°21.532 3°5.56 67.2 12.1 67 9.5
2002-04-11 07:52:29 51°21.542 3°5.589 66.3 12.1 65.6 9.6
2002-04-11 07:52:34 51°21.547 3°5.614 67.3 12.1 66.8 9.6
2002-04-11 07:52:39 51°21.555 3°5.638 66 12.1 65 9.7
2002-04-11 07:52:44 51°21.561 3°5.664 67.5 12.1 66.7 9.6
2002-04-11 07:52:49 51°21.568 3°5.688 66.3 12.1 65.7 9.7
2002-04-11 07:52:54 51°21.574 3°5.713 67.8 12.2 66.7 9.6
2002-04-11 07:52:59 51°21.582 3°5.737 66.3 12.1 65.8 9.6
2002-04-11 07:53:04 51°21.588 3°5.762 67 12.1 66.6 9.6
2002-04-11 07:53:09 51°21.595 3°5.786 66.2 12.1 65.9 9.4
2002-04-11 07:53:14 51°21.601 3°5.811 67.8 12 67 9.7
2002-04-11 07:53:19 51°21.609 3°5.835 66.7 12 66 9.6
2002-04-11 07:53:24 51°21.615 3°5.86 66.7 12 65.7 9.8
2002-04-11 07:53:29 51°21.622 3°5.885 67.3 12.1 66.2 9.6
2002-04-11 07:53:34 51°21.629 3°5.908 66.8 12 66 9.9
2002-04-11 07:53:39 51°21.635 3°5.933 67.5 11.9 66.5 9.8
2002-04-11 07:53:43 51°21.641 3°5.952 67.5 12 66.3 9.8
2002-04-11 07:53:49 51°21.649 3°5.982 66.8 12 66.7 9.8
2002-04-11 07:53:54 51°21.656 3°6.006 66.8 12 66.5 9.8
2002-04-11 07:53:59 51°21.663 3°6.03 66.3 12 66.1 9.9
2002-04-11 07:54:04 51°21.669 3°6.055 67 12 66.8 10
2002-04-11 07:54:09 51°21.677 3°6.079 66.2 12.1 66.1 10
2002-04-11 07:54:14 51°21.683 3°6.104 67.8 12 67.1 10.1
2002-04-11 07:54:19 51°21.69 3°6.128 66.3 12 66.8 10
2002-04-11 07:54:24 51°21.696 3°6.153 67.8 12.1 67 10
2002-04-11 07:54:29 51°21.703 3°6.177 65.7 12.1 65.9 10.1
2002-04-11 07:54:34 51°21.709 3°6.202 67.5 12.1 66.8 -999
2002-04-11 07:54:39 51°21.717 3°6.225 66.2 12 65.9 10.1
2002-04-11 07:54:44 51°21.723 3°6.251 67.2 12.1 66.5 10.2
2002-04-11 07:54:49 51°21.73 3°6.275 66.5 12.1 66.1 10.2
2002-04-11 07:54:53 51°21.735 3°6.295 68 12.1 67.2 10.3
2002-04-11 07:54:59 51°21.744 3°6.324 66.3 12.1 66.5 10.3
2002-04-11 07:55:04 51°21.75 3°6.349 67.5 12.1 66.7 10.2
2002-04-11 07:55:09 51°21.757 3°6.373 65.8 12.1 66.6 10.3
2002-04-11 07:55:14 51°21.764 3°6.398 67.5 12.2 66.3 10.3
2002-04-11 07:55:19 51°21.771 3°6.423 66.3 12.1 66.2 10.2
2002-04-11 07:55:24 51°21.778 3°6.447 66.7 12.1 66.1 10.2
2002-04-11 07:55:29 51°21.785 3°6.471 65 12.1 65.4 10.3
2002-04-11 07:55:33 51°21.792 3°6.491 65.7 12.1 64.7 10.4
2002-04-11 07:55:39 51°21.799 3°6.52 66.5 12.1 65.1 10.4
2002-04-11 07:55:44 51°21.806 3°6.544 65.3 12.1 64.8 10.3
2002-04-11 07:55:49 51°21.813 3°6.569 64.8 12.1 64.4 10.3
2002-04-11 07:55:54 51°21.821 3°6.593 64.8 12.1 64.3 10.4
2002-04-11 07:55:59 51°21.828 3°6.617 65.2 12.1 64.5 10.5
2002-04-11 07:56:03 51°21.835 3°6.636 64.8 12.2 63.9 10.5
2002-04-11 07:56:09 51°21.843 3°6.665 66 12.2 64.9 10.6
2002-04-11 07:56:14 51°21.85 3°6.69 65.8 12.1 64.4 10.5
2002-04-11 07:56:19 51°21.857 3°6.714 65.5 12.2 65.2 10.5
2002-04-11 07:56:24 51°21.865 3°6.738 65.5 12.1 64.1 10.4
2002-04-11 07:56:28 51°21.87 3°6.759 66.2 12.1 65.9 10.5
2002-04-11 07:56:33 51°21.877 3°6.782 65.8 12.2 64.6 10.5
2002-04-11 07:56:39 51°21.885 3°6.812 66.5 12.2 66.5 10.5
2002-04-11 07:56:44 51°21.893 3°6.836 65 12.2 65.1 10.5
2002-04-11 07:56:49 51°21.899 3°6.861 66.5 12.2 66.7 10.5
2002-04-11 07:56:53 51°21.905 3°6.88 65.8 12.2 64.9 10.5
2002-04-11 07:56:59 51°21.913 3°6.91 65.8 12.2 66.2 10.5
2002-04-11 07:57:04 51°21.921 3°6.934 65.3 12.2 64.4 10.6
2002-04-11 07:57:09 51°21.927 3°6.959 66.3 12.2 65.7 10.6
2002-04-11 07:57:13 51°21.934 3°6.978 65.7 12.2 64.5 10.7
2002-04-11 07:57:19 51°21.942 3°7.008 67.2 12.2 65.8 10.8
2002-04-11 07:57:24 51°21.95 3°7.032 64.8 12.2 64.5 10.7
2002-04-11 07:57:29 51°21.957 3°7.057 66.5 12.1 64.8 10.6
2002-04-11 07:57:34 51°21.964 3°7.081 65.3 12.1 65.1 10.7
2002-04-11 07:57:39 51°21.971 3°7.106 65.7 12.2 65 10.7
2002-04-11 07:57:44 51°21.978 3°7.131 66.5 12.2 65.5 10.8
2002-04-11 07:57:49 51°21.985 3°7.156 65.8 12.2 65.7 10.8
2002-04-11 07:57:54 51°21.993 3°7.18 66 12.3 65.3 10.8
2002-04-11 07:57:59 51°21.999 3°7.206 66.7 12.3 66.5 10.8
2002-04-11 07:58:03 51°22.005 3°7.226 66 12.4 65.7 10.8
2002-04-11 07:58:09 51°22.014 3°7.256 66.3 12.4 66.2 10.8
2002-04-11 07:58:14 51°22.02 3°7.281 66.2 12.4 65.8 10.7
2002-04-11 07:58:18 51°22.026 3°7.301 66.2 12.4 65.8 10.9
2002-04-11 07:58:24 51°22.034 3°7.331 66 12.4 66.1 11
2002-04-11 07:58:29 51°22.042 3°7.356 65.8 12.3 65.5 11